Time;durP1;ratioP1;P1;durP2;ratioP2;P2;SDS_P1;SDS_P2;PMS_P1;PMS_P2;Temp;Humidity;BMP_temperature;BMP_pressure;BME280_temperature;BME280_humidity;BME280_pressure;Samples;Min_cycle;Max_cycle;Signal;HPM_P1;HPM_P2
2021/06/10 00:01:46;;;;;;;0.10;0.10;;;;;;;20.37;32.24;98325.38;4991298;28;20057;-58
2021/06/10 00:04:12;;;;;;;0.20;0.20;;;;;;;19.63;33.73;98322.66;4992309;28;20088;-59
2021/06/10 00:06:38;;;;;;;0.20;0.20;;;;;;;18.39;36.06;98327.34;4991930;28;20037;-62
2021/06/10 00:09:05;;;;;;;0.80;0.70;;;;;;;17.26;38.30;98334.91;4990508;28;20096;-59
2021/06/10 00:11:31;;;;;;;0.28;0.28;;;;;;;16.38;39.58;98347.66;4989534;28;20553;-59
2021/06/10 00:13:57;;;;;;;4.40;1.40;;;;;;;15.70;40.79;98332.34;4990333;28;20121;-59
2021/06/10 00:16:23;;;;;;;0.43;0.38;;;;;;;15.12;42.11;98332.69;4991749;28;20023;-59
2021/06/10 00:18:51;;;;;;;0.20;0.20;;;;;;;14.68;42.91;98329.34;4991722;28;20026;-59
2021/06/10 00:21:17;;;;;;;0.10;0.10;;;;;;;14.32;43.34;98333.91;4991056;28;20074;-60
2021/06/10 00:23:43;;;;;;;0.45;0.45;;;;;;;14.06;43.48;98319.16;4990227;28;20027;-58
2021/06/10 00:26:10;;;;;;;0.22;0.22;;;;;;;13.90;43.59;98318.25;4991337;28;20061;-59
2021/06/10 00:28:36;;;;;;;0.30;0.30;;;;;;;13.79;43.87;98320.16;4991259;28;20046;-59
2021/06/10 00:31:03;;;;;;;0.20;0.20;;;;;;;13.76;43.50;98328.97;4991136;28;20111;-58
2021/06/10 00:33:29;;;;;;;0.30;0.30;;;;;;;13.75;43.39;98328.16;4991480;28;20035;-60
2021/06/10 00:35:55;;;;;;;0.35;0.35;;;;;;;13.75;43.25;98327.31;4991278;28;20038;-59
2021/06/10 00:38:21;;;;;;;0.47;0.20;;;;;;;13.77;42.94;98331.47;4991222;28;20048;-58
2021/06/10 00:40:47;;;;;;;0.40;0.40;;;;;;;13.80;42.81;98319.06;4991345;28;20034;-60
2021/06/10 00:43:13;;;;;;;1.35;0.30;;;;;;;13.87;42.55;98327.09;4991698;28;20076;-60
2021/06/10 00:45:40;;;;;;;0.20;0.20;;;;;;;13.95;42.69;98327.41;4990139;28;20030;-60
2021/06/10 00:48:05;;;;;;;0.15;0.15;;;;;;;14.19;42.09;98319.50;4990965;28;20034;-59
2021/06/10 00:50:43;;;;;;;0.13;0.13;;;;;;;14.84;40.80;98318.28;4991058;28;20073;-59
2021/06/10 00:53:09;;;;;;;0.22;0.22;;;;;;;15.36;39.96;98319.97;4990896;28;20068;-59
2021/06/10 00:55:36;;;;;;;0.10;0.10;;;;;;;15.86;39.23;98314.63;4989339;28;20508;-61
2021/06/10 00:58:02;;;;;;;0.20;0.20;;;;;;;16.68;37.72;98318.09;4991299;28;20373;-58
2021/06/10 01:00:28;;;;;;;0.20;0.20;;;;;;;17.16;37.00;98324.69;4991143;28;20087;-58
2021/06/10 01:02:53;;;;;;;0.65;0.50;;;;;;;17.00;37.77;98328.72;4991009;28;20419;-58
2021/06/10 01:05:19;;;;;;;0.30;0.30;;;;;;;16.62;38.41;98320.06;4990950;28;20060;-58
2021/06/10 01:07:55;;;;;;;0.17;0.17;;;;;;;16.16;39.11;98318.38;4990678;28;20438;-59
2021/06/10 01:10:43;;;;;;;0.10;0.10;;;;;;;16.12;39.68;98322.81;4990364;28;20092;-57
2021/06/10 01:13:48;;;;;;;0.45;0.30;;;;;;;17.28;37.61;98327.09;4989163;28;20034;-57
2021/06/10 01:16:20;;;;;;;0.13;0.13;;;;;;;19.24;34.52;98314.41;4989171;28;20129;-59
2021/06/10 01:18:48;;;;;;;0.15;0.15;;;;;;;21.17;31.90;98322.19;4988181;28;20037;-58
2021/06/10 01:21:18;;;;;;;0.20;0.20;;;;;;;22.07;30.89;98317.63;4988666;28;20487;-57
2021/06/10 01:23:50;;;;;;;0.10;0.10;;;;;;;22.99;30.17;98317.69;4989122;28;20542;-58
2021/06/10 01:26:31;;;;;;;0.10;0.10;;;;;;;25.32;27.52;98319.34;4988738;28;20038;-58
2021/06/10 01:29:01;;;;;;;0.20;0.20;;;;;;;27.54;25.68;98299.59;4990511;28;20039;-59
2021/06/10 01:31:27;;;;;;;0.10;0.10;;;;;;;29.62;24.16;98302.91;4989991;28;20369;-58
2021/06/10 01:33:57;;;;;;;0.10;0.10;;;;;;;31.43;22.86;98309.38;4989940;28;20423;-58
2021/06/10 01:36:31;;;;;;;0.20;0.20;;;;;;;32.71;22.14;98307.41;4990202;28;20123;-62
2021/06/10 01:39:01;;;;;;;4.57;0.35;;;;;;;32.67;22.74;98301.66;4990650;28;20062;-60
2021/06/10 01:41:27;;;;;;;0.30;0.30;;;;;;;33.25;22.40;98314.22;4990369;28;20394;-58
2021/06/10 01:43:56;;;;;;;0.10;0.10;;;;;;;34.31;22.02;98310.44;4972662;28;20400;-59
2021/06/10 01:46:27;;;;;;;0.30;0.30;;;;;;;35.43;21.39;98322.47;4990122;28;20053;-62
2021/06/10 01:48:54;;;;;;;0.10;0.10;;;;;;;36.29;20.78;98318.28;4990082;28;20033;-62
2021/06/10 01:51:25;;;;;;;0.10;0.10;;;;;;;36.48;20.89;98312.03;4990541;28;20080;-59
2021/06/10 01:53:52;;;;;;;0.13;0.13;;;;;;;36.96;20.41;98316.06;4990294;28;20069;-59
2021/06/10 01:56:20;;;;;;;0.10;0.10;;;;;;;37.43;20.12;98312.66;4990217;28;20373;-60
2021/06/10 01:58:48;;;;;;;0.28;0.28;;;;;;;37.93;19.80;98316.91;4990063;28;20034;-60
2021/06/10 02:01:15;;;;;;;0.20;0.20;;;;;;;38.96;19.49;98312.75;4988598;28;20038;-60
2021/06/10 02:03:42;;;;;;;0.15;0.15;;;;;;;39.54;19.25;98317.34;4990200;28;20034;-60
2021/06/10 02:06:09;;;;;;;0.10;0.10;;;;;;;39.91;18.96;98321.06;4990093;28;20037;-60
2021/06/10 02:08:39;;;;;;;0.15;0.15;;;;;;;40.43;18.46;98316.53;4990077;28;20034;-60
2021/06/10 02:11:05;;;;;;;0.10;0.10;;;;;;;41.10;17.94;98326.75;4988198;28;20026;-59
2021/06/10 02:13:32;;;;;;;0.03;0.03;;;;;;;41.53;17.68;98321.84;4990400;28;20467;-59
2021/06/10 02:16:06;;;;;;;0.73;0.43;;;;;;;41.34;17.98;98324.44;4989934;28;20167;-58
2021/06/10 02:18:34;;;;;;;0.35;0.35;;;;;;;40.88;18.85;98312.13;4989837;28;20038;-60
2021/06/10 02:21:06;;;;;;;0.03;0.03;;;;;;;41.16;18.41;98319.16;4989998;28;20023;-60
2021/06/10 02:23:35;;;;;;;0.10;0.10;;;;;;;41.21;18.30;98321.47;4988531;28;20026;-60
2021/06/10 02:26:01;;;;;;;0.17;0.17;;;;;;;41.40;18.13;98328.34;4989710;28;20031;-59
2021/06/10 02:28:27;;;;;;;0.10;0.10;;;;;;;41.75;17.65;98328.56;4990063;28;20408;-58
2021/06/10 02:30:53;;;;;;;0.22;0.20;;;;;;;41.97;17.58;98330.78;4988869;28;20050;-59
2021/06/10 02:33:19;;;;;;;0.10;0.10;;;;;;;41.89;17.50;98330.22;4989012;28;20041;-59
2021/06/10 02:35:46;;;;;;;0.95;0.20;;;;;;;42.11;17.44;98327.47;4993034;28;20035;-59
2021/06/10 02:38:13;;;;;;;0.10;0.10;;;;;;;42.10;17.44;98320.06;4992812;28;20107;-60
2021/06/10 02:40:45;;;;;;;0.52;0.35;;;;;;;42.18;17.24;98324.38;4992861;28;20038;-60
2021/06/10 02:43:11;;;;;;;4.38;0.30;;;;;;;42.79;16.58;98329.34;4992730;28;20092;-59
2021/06/10 02:45:43;;;;;;;0.20;0.20;;;;;;;43.46;16.40;98325.28;4991439;28;20450;-60
2021/06/10 02:48:10;;;;;;;0.50;0.50;;;;;;;43.72;15.74;98328.03;4993031;28;20114;-59
2021/06/10 02:50:39;;;;;;;0.20;0.20;;;;;;;43.70;15.98;98337.19;4993070;28;20057;-59
2021/06/10 02:53:06;;;;;;;0.20;0.20;;;;;;;44.10;15.94;98336.44;4992879;28;20026;-60
2021/06/10 02:55:36;;;;;;;0.47;0.30;;;;;;;43.33;16.48;98336.09;4991314;28;20065;-60
2021/06/10 02:58:04;;;;;;;0.10;0.10;;;;;;;41.43;17.71;98324.59;4992806;28;20038;-61
2021/06/10 03:00:32;;;;;;;0.10;0.10;;;;;;;41.07;17.90;98331.34;4992529;28;20039;-61
2021/06/10 03:03:00;;;;;;;0.17;0.17;;;;;;;41.72;16.97;98332.34;4992653;28;20113;-59
2021/06/10 03:05:27;;;;;;;0.10;0.10;;;;;;;42.22;16.50;98330.00;4992618;28;20030;-59
2021/06/10 03:07:55;;;;;;;0.20;0.20;;;;;;;42.75;16.21;98343.13;4992744;28;20035;-59
2021/06/10 03:10:26;;;;;;;0.20;0.20;;;;;;;43.33;15.88;98342.69;4992164;28;20042;-59
2021/06/10 03:12:54;;;;;;;0.20;0.20;;;;;;;43.36;15.32;98329.38;4992950;28;20080;-59
2021/06/10 03:15:21;;;;;;;0.10;0.10;;;;;;;43.63;15.60;98340.34;4991144;28;20042;-59
2021/06/10 03:17:48;;;;;;;0.30;0.30;;;;;;;44.07;14.98;98333.72;4992467;28;20292;-59
2021/06/10 03:20:13;;;;;;;0.20;0.20;;;;;;;44.59;14.76;98346.41;4974797;28;20509;-59
2021/06/10 03:22:39;;;;;;;0.10;0.10;;;;;;;44.71;14.64;98346.81;4990798;28;20034;-59
2021/06/10 03:25:08;;;;;;;0.13;0.13;;;;;;;44.77;14.04;98336.19;4992140;28;20126;-59
2021/06/10 03:27:35;;;;;;;0.65;0.65;;;;;;;43.82;15.29;98341.25;4992040;28;20042;-59
2021/06/10 03:30:03;;;;;;;0.10;0.10;;;;;;;42.95;15.64;98339.91;4991867;28;20419;-58
2021/06/10 03:32:29;;;;;;;0.20;0.20;;;;;;;42.13;16.16;98350.06;4992260;28;20054;-59
2021/06/10 03:34:56;;;;;;;0.30;0.30;;;;;;;41.87;16.05;98338.50;4992014;28;20031;-60
2021/06/10 03:37:24;;;;;;;0.10;0.10;;;;;;;41.13;16.47;98335.28;4991961;28;20049;-59
2021/06/10 03:39:51;;;;;;;0.15;0.15;;;;;;;41.01;16.25;98341.78;4992226;28;20034;-60
2021/06/10 03:42:18;;;;;;;0.28;0.28;;;;;;;40.55;16.46;98350.38;4991888;28;20030;-60
2021/06/10 03:44:45;;;;;;;0.17;0.17;;;;;;;40.52;16.15;98341.81;4991793;28;20030;-59
2021/06/10 03:47:15;;;;;;;0.10;0.10;;;;;;;39.92;16.64;98337.06;4992373;28;20117;-60
2021/06/10 03:49:43;;;;;;;0.20;0.20;;;;;;;40.25;16.29;98337.13;4991719;28;20037;-60
2021/06/10 03:52:09;;;;;;;0.28;0.28;;;;;;;40.64;15.88;98358.38;4991837;28;20087;-60
2021/06/10 03:54:35;;;;;;;0.10;0.10;;;;;;;40.39;16.11;98362.66;4991951;28;20121;-60
2021/06/10 03:57:01;;;;;;;0.20;0.20;;;;;;;40.00;16.14;98357.81;4991787;28;20033;-59
2021/06/10 03:59:27;;;;;;;0.13;0.13;;;;;;;40.03;15.80;98354.88;4991756;28;20039;-59
2021/06/10 04:01:53;;;;;;;0.10;0.10;;;;;;;40.20;15.70;98352.03;4991977;28;20041;-59
2021/06/10 04:04:19;;;;;;;0.20;0.10;;;;;;;39.83;15.67;98351.19;4991435;28;20038;-59
2021/06/10 04:06:46;;;;;;;0.52;0.20;;;;;;;39.52;15.68;98345.69;4990094;28;20023;-59
2021/06/10 04:09:12;;;;;;;0.28;0.28;;;;;;;39.66;15.36;98353.25;4991670;28;20035;-59
2021/06/10 04:11:40;;;;;;;0.35;0.32;;;;;;;39.71;15.27;98342.03;4991563;28;20097;-59
2021/06/10 04:14:06;;;;;;;0.30;0.30;;;;;;;39.24;15.61;98354.47;4991608;28;20116;-58
2021/06/10 04:16:32;;;;;;;0.40;0.40;;;;;;;39.21;15.60;98348.78;4991496;28;20077;-60
2021/06/10 04:18:58;;;;;;;0.65;0.30;;;;;;;38.96;15.40;98361.56;4990138;28;20141;-60
2021/06/10 04:21:23;;;;;;;0.17;0.17;;;;;;;37.97;15.93;98354.09;4991400;28;20087;-58
2021/06/10 04:23:50;;;;;;;0.10;0.10;;;;;;;37.60;16.18;98345.16;4991181;28;20038;-59
2021/06/10 04:26:17;;;;;;;0.32;0.30;;;;;;;37.23;16.11;98354.59;4991408;28;20034;-59
2021/06/10 04:28:46;;;;;;;0.65;0.30;;;;;;;37.47;16.00;98344.09;4991456;28;20042;-58
2021/06/10 04:31:17;;;;;;;0.10;0.10;;;;;;;37.58;15.47;98353.38;4990778;28;20054;-59
2021/06/10 04:33:44;;;;;;;0.20;0.20;;;;;;;37.64;15.46;98351.66;4991199;28;20060;-59
2021/06/10 04:36:10;;;;;;;0.82;0.30;;;;;;;37.69;15.36;98354.06;4989851;28;20030;-60
2021/06/10 04:38:38;;;;;;;0.20;0.20;;;;;;;38.18;14.93;98347.25;4991029;28;20083;-58
2021/06/10 04:41:05;;;;;;;0.10;0.10;;;;;;;39.03;14.35;98344.19;4991371;28;20038;-59
2021/06/10 04:43:30;;;;;;;0.20;0.20;;;;;;;38.62;14.62;98353.94;4991225;28;20121;-60
2021/06/10 04:45:56;;;;;;;0.10;0.10;;;;;;;37.03;15.88;98354.41;4991499;28;20130;-58
2021/06/10 04:48:23;;;;;;;0.10;0.10;;;;;;;36.23;16.51;98349.34;4991267;28;20412;-62
2021/06/10 04:50:49;;;;;;;0.10;0.10;;;;;;;37.41;15.42;98351.56;4991396;28;20029;-60
2021/06/10 04:53:15;;;;;;;0.10;0.10;;;;;;;38.32;14.82;98361.38;4991316;28;20468;-58
2021/06/10 04:55:43;;;;;;;0.10;0.10;;;;;;;38.62;14.52;98374.00;4990831;28;20066;-60
2021/06/10 04:58:09;;;;;;;0.20;0.20;;;;;;;37.45;15.02;98361.72;4989761;28;20034;-62
2021/06/10 05:00:35;;;;;;;0.20;0.20;;;;;;;37.28;15.37;98368.47;4991505;28;20376;-61
2021/06/10 05:03:01;;;;;;;0.10;0.10;;;;;;;37.83;14.66;98358.81;4990474;28;20079;-59
2021/06/10 05:05:27;;;;;;;0.20;0.20;;;;;;;38.80;14.19;98372.94;4991037;28;20086;-59
2021/06/10 05:07:53;;;;;;;0.10;0.10;;;;;;;38.37;14.61;98366.63;4990693;28;20407;-60
2021/06/10 05:10:18;;;;;;;0.10;0.10;;;;;;;38.21;14.57;98355.03;4991743;28;20526;-59
2021/06/10 05:12:44;;;;;;;0.10;0.10;;;;;;;38.00;14.69;98368.41;4989534;28;20045;-59
2021/06/10 05:15:10;;;;;;;0.10;0.10;;;;;;;37.60;14.64;98373.81;4990654;28;20038;-58
2021/06/10 05:17:37;;;;;;;0.30;0.30;;;;;;;37.63;14.99;98375.00;4990868;28;20045;-59
2021/06/10 05:20:04;;;;;;;0.13;0.13;;;;;;;37.10;14.73;98369.44;4990704;28;20403;-58
2021/06/10 05:22:30;;;;;;;0.10;0.10;;;;;;;37.00;15.23;98384.69;4991045;28;20034;-59
2021/06/10 05:24:56;;;;;;;0.10;0.10;;;;;;;36.84;14.86;98379.53;4990867;28;20026;-60
2021/06/10 05:27:22;;;;;;;0.30;0.30;;;;;;;37.09;14.73;98375.59;4990914;28;20033;-59
2021/06/10 05:29:47;;;;;;;0.20;0.20;;;;;;;37.09;14.80;98401.34;4990286;28;20118;-60
2021/06/10 05:32:13;;;;;;;0.10;0.10;;;;;;;36.79;14.97;98394.28;4990405;28;20042;-60
2021/06/10 05:34:39;;;;;;;0.20;0.20;;;;;;;36.30;15.26;98380.75;4988882;28;20484;-60
2021/06/10 05:37:05;;;;;;;0.10;0.10;;;;;;;36.37;14.71;98394.19;4990022;28;20023;-59
2021/06/10 05:39:31;;;;;;;0.10;0.10;;;;;;;36.94;14.53;98390.06;4990355;28;20061;-59
2021/06/10 05:41:57;;;;;;;0.10;0.10;;;;;;;36.99;14.11;98395.31;4988888;28;20118;-59
2021/06/10 05:44:29;;;;;;;0.20;0.20;;;;;;;36.75;14.25;98382.03;4989929;28;20035;-59
2021/06/10 05:46:57;;;;;;;0.10;0.10;;;;;;;34.60;15.70;98387.38;4979527;28;20500;-60
2021/06/10 05:49:23;;;;;;;0.10;0.10;;;;;;;32.61;17.30;98389.31;4986007;28;20042;-60
2021/06/10 05:51:49;;;;;;;0.20;0.20;;;;;;;30.15;19.26;98392.03;4987767;28;20819;-60
2021/06/10 05:54:15;;;;;;;0.43;0.40;;;;;;;28.57;20.60;98395.03;4987106;28;20034;-58
2021/06/10 05:56:41;;;;;;;0.52;0.20;;;;;;;26.69;21.87;98392.47;4987855;28;20087;-58
2021/06/10 05:59:07;;;;;;;0.35;0.30;;;;;;;25.34;22.71;98390.91;4987255;28;20038;-59
2021/06/10 06:01:33;;;;;;;1.02;0.30;;;;;;;24.66;22.58;98376.97;4987124;28;20034;-60
2021/06/10 06:03:59;;;;;;;0.10;0.10;;;;;;;24.04;22.52;98395.22;4987754;28;20189;-59
2021/06/10 06:06:26;;;;;;;0.10;0.10;;;;;;;23.48;22.81;98383.91;4969943;28;20030;-60
2021/06/10 06:08:52;;;;;;;0.10;0.10;;;;;;;22.92;22.97;98387.31;4989713;28;20076;-60
2021/06/10 06:11:19;;;;;;;0.28;0.20;;;;;;;22.69;22.99;98378.25;4990011;28;20057;-58
2021/06/10 06:13:46;;;;;;;0.10;0.10;;;;;;;22.65;22.45;98385.66;4990643;28;20505;-58
2021/06/10 06:16:15;;;;;;;0.10;0.10;;;;;;;22.29;22.61;98390.28;4987878;28;20121;-60
2021/06/10 06:18:42;;;;;;;0.10;0.10;;;;;;;21.80;22.81;98394.94;4990547;28;20345;-59
2021/06/10 06:21:08;;;;;;;0.20;0.20;;;;;;;21.47;22.63;98390.44;4989711;28;20034;-58
2021/06/10 06:23:34;;;;;;;0.10;0.10;;;;;;;21.16;22.83;98385.59;4990410;28;20038;-59
2021/06/10 06:26:00;;;;;;;0.10;0.10;;;;;;;20.89;22.70;98388.44;4990310;28;20045;-57
2021/06/10 06:28:26;;;;;;;0.10;0.10;;;;;;;20.75;22.65;98399.66;4989347;28;20087;-59
2021/06/10 06:30:53;;;;;;;0.20;0.20;;;;;;;20.67;22.55;98397.56;4989855;28;20054;-59
2021/06/10 06:33:19;;;;;;;2.08;0.73;;;;;;;20.60;22.34;98398.78;4990264;28;20042;-60
2021/06/10 06:35:45;;;;;;;0.20;0.20;;;;;;;20.57;22.01;98405.00;4990131;28;20496;-59
2021/06/10 06:38:11;;;;;;;0.10;0.10;;;;;;;20.60;22.01;98384.03;4990046;28;20034;-58
2021/06/10 06:40:38;;;;;;;0.30;0.10;;;;;;;20.63;21.81;98398.16;4990049;28;20117;-59
2021/06/10 06:43:06;;;;;;;0.10;0.10;;;;;;;20.71;21.49;98381.88;4989687;28;20163;-59
2021/06/10 06:45:33;;;;;;;0.30;0.20;;;;;;;21.06;21.42;98387.81;4990001;28;21520;-62
2021/06/10 06:48:00;;;;;;;0.10;0.10;;;;;;;21.40;21.05;98397.59;4989681;28;20134;-59
2021/06/10 06:50:26;;;;;;;0.20;0.20;;;;;;;21.54;20.85;98390.03;4988661;28;20120;-59
2021/06/10 06:52:52;;;;;;;0.10;0.10;;;;;;;21.61;20.75;98397.94;4986941;28;20038;-58
2021/06/10 06:55:18;;;;;;;0.10;0.10;;;;;;;21.58;20.79;98388.22;4989736;28;20031;-59
2021/06/10 06:57:44;;;;;;;0.10;0.10;;;;;;;21.41;21.05;98396.47;4990203;28;20076;-60
2021/06/10 07:00:11;;;;;;;0.20;0.20;;;;;;;21.35;20.95;98390.19;4986273;28;20058;-59
2021/06/10 07:02:37;;;;;;;0.10;0.10;;;;;;;21.28;21.04;98392.59;4989920;28;20034;-59
2021/06/10 07:05:04;;;;;;;0.32;0.32;;;;;;;21.24;21.06;98395.16;4989737;28;20034;-59
2021/06/10 07:07:29;;;;;;;0.75;0.22;;;;;;;21.23;21.15;98401.91;4988082;28;20103;-61
2021/06/10 07:09:55;;;;;;;0.10;0.10;;;;;;;21.10;21.29;98389.63;4990183;28;20070;-59
2021/06/10 07:12:21;;;;;;;0.00;0.00;;;;;;;20.89;21.38;98388.44;4987860;28;20030;-58
2021/06/10 07:14:47;;;;;;;0.30;0.15;;;;;;;20.86;21.43;98392.69;4989436;28;20038;-59
2021/06/10 07:17:13;;;;;;;0.98;0.32;;;;;;;20.89;21.43;98392.09;4990183;28;20509;-59
2021/06/10 07:19:39;;;;;;;0.10;0.10;;;;;;;21.06;21.29;98391.41;4988736;28;20362;-60
2021/06/10 07:22:05;;;;;;;0.30;0.30;;;;;;;21.10;21.24;98400.00;4989090;28;20041;-59
2021/06/10 07:24:31;;;;;;;4.95;0.45;;;;;;;20.95;21.35;98399.19;4989660;28;20038;-60
2021/06/10 07:26:56;;;;;;;0.10;0.10;;;;;;;21.10;21.14;98388.81;4988508;28;20034;-59
2021/06/10 07:29:22;;;;;;;0.10;0.10;;;;;;;21.20;21.05;98415.66;4989060;28;20042;-59
2021/06/10 07:31:48;;;;;;;0.20;0.20;;;;;;;20.85;21.47;98391.06;4989325;28;20062;-58
2021/06/10 07:34:14;;;;;;;0.13;0.13;;;;;;;20.46;21.85;98386.81;4989995;28;20462;-60
2021/06/10 07:36:40;;;;;;;0.10;0.10;;;;;;;20.39;21.87;98391.97;4989987;28;20068;-59
2021/06/10 07:39:08;;;;;;;0.25;0.25;;;;;;;20.55;21.63;98400.88;4991384;28;20062;-58
2021/06/10 07:41:35;;;;;;;0.45;0.20;;;;;;;20.45;21.51;98383.22;4991776;28;20040;-58
2021/06/10 07:44:01;;;;;;;0.10;0.10;;;;;;;20.63;21.45;98397.34;4991530;28;20381;-59
2021/06/10 07:46:27;;;;;;;0.90;0.43;;;;;;;20.67;21.46;98398.44;4991588;28;20053;-59
2021/06/10 07:48:53;;;;;;;0.10;0.10;;;;;;;20.78;21.35;98397.03;4991942;28;20030;-62
2021/06/10 07:51:19;;;;;;;0.10;0.10;;;;;;;20.60;21.53;98409.16;4991672;28;20056;-58
2021/06/10 07:53:44;;;;;;;0.10;0.10;;;;;;;20.40;21.87;98396.44;4990601;28;20023;-59
2021/06/10 07:56:10;;;;;;;0.17;0.17;;;;;;;20.18;22.06;98406.31;4991802;28;20038;-59
2021/06/10 07:58:36;;;;;;;0.10;0.10;;;;;;;20.08;22.10;98406.53;4991343;28;20035;-60
2021/06/10 08:01:03;;;;;;;0.10;0.10;;;;;;;20.16;22.04;98399.44;4991331;28;20519;-58
2021/06/10 08:03:29;;;;;;;0.10;0.10;;;;;;;20.49;21.71;98408.50;4991560;28;20125;-59
2021/06/10 08:05:56;;;;;;;0.13;0.13;;;;;;;20.77;21.57;98414.94;4991567;28;20121;-59
2021/06/10 08:08:23;;;;;;;0.20;0.20;;;;;;;21.14;21.14;98414.94;4990269;28;20079;-59
2021/06/10 08:10:51;;;;;;;0.10;0.10;;;;;;;21.42;20.95;98417.66;4991266;28;20037;-60
2021/06/10 08:13:18;;;;;;;0.13;0.13;;;;;;;21.51;20.83;98418.59;4991653;28;20026;-62
2021/06/10 08:15:45;;;;;;;0.45;0.32;;;;;;;21.43;20.84;98414.53;4991408;28;20030;-59
2021/06/10 08:18:11;;;;;;;0.10;0.10;;;;;;;21.17;21.31;98422.69;4990029;28;20030;-61
2021/06/10 08:20:38;;;;;;;0.10;0.10;;;;;;;20.96;21.46;98414.78;4991169;28;20164;-60
2021/06/10 08:23:04;;;;;;;1.00;0.20;;;;;;;20.98;21.42;98409.72;4991373;28;20500;-59
2021/06/10 08:25:32;;;;;;;0.20;0.20;;;;;;;21.04;21.42;98413.22;4990151;28;20458;-60
2021/06/10 08:28:01;;;;;;;0.10;0.10;;;;;;;21.26;21.27;98415.25;4989856;28;20026;-59
2021/06/10 08:30:27;;;;;;;0.10;0.10;;;;;;;21.62;20.92;98431.16;4990976;28;20133;-65
2021/06/10 08:32:53;;;;;;;0.10;0.10;;;;;;;21.67;20.96;98422.66;4989669;28;20185;-59
2021/06/10 08:35:19;;;;;;;0.20;0.20;;;;;;;21.61;20.99;98426.72;4991526;28;20498;-60
2021/06/10 08:37:45;;;;;;;0.43;0.20;;;;;;;21.43;21.29;98433.28;4991068;28;20071;-59
2021/06/10 08:40:13;;;;;;;0.10;0.10;;;;;;;21.23;21.51;98421.47;4989379;28;20041;-58
2021/06/10 08:42:41;;;;;;;0.52;0.30;;;;;;;21.34;21.37;98417.25;4990657;28;20077;-60
2021/06/10 08:45:12;;;;;;;0.10;0.10;;;;;;;21.65;21.17;98424.91;4990865;28;20030;-59
2021/06/10 08:47:42;;;;;;;0.10;0.10;;;;;;;21.95;20.91;98411.31;4990826;28;20168;-59
2021/06/10 08:50:12;;;;;;;0.13;0.13;;;;;;;22.34;20.54;98420.91;4990607;28;20529;-59
2021/06/10 08:52:39;;;;;;;0.10;0.10;;;;;;;22.67;20.04;98434.53;4990665;28;20030;-59
2021/06/10 08:55:06;;;;;;;0.10;0.10;;;;;;;22.79;20.12;98430.28;4991211;28;20340;-59
2021/06/10 08:57:34;;;;;;;0.40;0.40;;;;;;;22.64;20.54;98423.97;4990607;28;20030;-58
2021/06/10 09:00:00;;;;;;;0.20;0.20;;;;;;;22.32;20.80;98433.56;4990894;28;20091;-59
2021/06/10 09:02:26;;;;;;;0.10;0.10;;;;;;;22.14;20.98;98446.59;4990794;28;20442;-59
2021/06/10 09:04:51;;;;;;;0.20;0.20;;;;;;;21.91;21.23;98426.25;4990501;28;20034;-59
2021/06/10 09:07:32;;;;;;;1.75;0.20;;;;;;;21.84;21.33;98429.50;4990505;28;20079;-60
2021/06/10 09:09:58;;;;;;;0.20;0.10;;;;;;;21.75;21.46;98457.38;4990464;28;20064;-59
2021/06/10 09:12:24;;;;;;;0.10;0.10;;;;;;;21.66;21.59;98446.13;4990788;28;20041;-59
2021/06/10 09:14:52;;;;;;;0.10;0.10;;;;;;;21.65;21.55;98435.28;4988978;28;20079;-58
2021/06/10 09:17:32;;;;;;;0.10;0.10;;;;;;;21.67;21.58;98442.22;4989189;28;20031;-60
2021/06/10 09:19:58;;;;;;;0.10;0.10;;;;;;;21.72;21.67;98446.84;4990479;28;20069;-58
2021/06/10 09:22:29;;;;;;;0.40;0.28;;;;;;;21.73;21.54;98439.28;4990865;28;20400;-59
2021/06/10 09:25:09;;;;;;;0.20;0.20;;;;;;;21.75;21.78;98439.81;4990323;28;20038;-59
2021/06/10 09:27:52;;;;;;;0.10;0.10;;;;;;;21.74;21.67;98443.72;4990464;28;20030;-59
2021/06/10 09:30:32;;;;;;;0.10;0.10;;;;;;;21.77;21.39;98445.88;4990167;28;20104;-59
2021/06/10 09:33:00;;;;;;;0.08;0.08;;;;;;;21.57;21.64;98433.25;4989971;28;20053;-59
2021/06/10 09:35:31;;;;;;;0.20;0.20;;;;;;;21.39;21.94;98435.84;4990440;28;20452;-59
2021/06/10 09:38:05;;;;;;;0.20;0.20;;;;;;;21.51;21.65;98441.75;4990275;28;20087;-59
2021/06/10 09:40:31;;;;;;;;;;;;;;;21.60;21.70;98444.63;4990460;28;20042;-59
2021/06/10 09:42:57;;;;;;;0.15;0.15;;;;;;;21.60;21.72;98455.78;4989825;28;19913;-58
2021/06/10 09:45:27;;;;;;;0.10;0.10;;;;;;;21.55;21.64;98444.72;4989882;28;20042;-59
2021/06/10 09:47:55;;;;;;;0.40;0.40;;;;;;;21.81;21.26;98453.31;4990235;28;20503;-58
2021/06/10 09:50:24;;;;;;;0.10;0.10;;;;;;;22.04;21.13;98454.13;4989658;28;20120;-58
2021/06/10 09:53:04;;;;;;;0.30;0.20;;;;;;;22.18;21.10;98475.59;4990631;28;20420;-59
2021/06/10 09:55:33;;;;;;;0.32;0.32;;;;;;;22.14;21.12;98455.00;4985666;28;20046;-59
2021/06/10 09:58:14;;;;;;;0.10;0.10;;;;;;;22.22;21.09;98457.84;4985916;28;20062;-58
2021/06/10 10:00:47;;;;;;;0.10;0.10;;;;;;;22.36;21.13;98449.41;5000276;28;20031;-60
2021/06/10 10:03:41;;;;;;;0.10;0.10;;;;;;;22.58;20.96;98453.25;4986782;28;20053;-59
2021/06/10 10:06:16;;;;;;;0.10;0.10;;;;;;;22.43;20.98;98459.28;4985363;28;20084;-59
2021/06/10 10:08:43;;;;;;;0.47;0.38;;;;;;;22.31;21.28;98455.09;4987013;28;20131;-58
2021/06/10 10:11:11;;;;;;;0.20;0.20;;;;;;;22.33;21.35;98458.41;4987183;28;20091;-58
2021/06/10 10:13:39;;;;;;;0.10;0.10;;;;;;;22.31;21.44;98474.66;4986497;28;20407;-61
2021/06/10 10:16:05;;;;;;;0.52;0.40;;;;;;;22.27;21.55;98451.28;4986965;28;20031;-59
2021/06/10 10:18:31;;;;;;;0.10;0.10;;;;;;;22.25;21.33;98461.97;4987140;28;20038;-59
2021/06/10 10:21:04;;;;;;;0.10;0.10;;;;;;;22.09;21.70;98467.13;4986784;28;20038;-61
2021/06/10 10:23:35;;;;;;;0.10;0.10;;;;;;;21.95;21.81;98472.81;4983825;28;20046;-60
2021/06/10 10:26:03;;;;;;;0.30;0.30;;;;;;;21.83;22.02;98465.00;4998977;28;20090;-59
2021/06/10 10:28:31;;;;;;;0.10;0.10;;;;;;;21.70;22.07;98465.88;4986592;28;20042;-60
2021/06/10 10:30:57;;;;;;;0.15;0.15;;;;;;;21.54;22.36;98473.81;4985853;28;20077;-60
2021/06/10 10:33:26;;;;;;;0.08;0.08;;;;;;;21.45;22.26;98484.03;4985333;28;20030;-60
2021/06/10 10:36:03;;;;;;;0.25;0.25;;;;;;;21.37;22.49;98477.25;4985057;28;20069;-59
2021/06/10 10:38:34;;;;;;;0.13;0.13;;;;;;;21.28;22.47;98482.75;4986336;28;20038;-59
2021/06/10 10:41:03;;;;;;;0.17;0.10;;;;;;;21.20;22.47;98491.03;4986264;28;20221;-60
2021/06/10 10:43:31;;;;;;;0.10;0.10;;;;;;;21.08;22.83;98491.56;4986758;28;20060;-59
2021/06/10 10:46:18;;;;;;;0.30;0.30;;;;;;;21.06;22.81;98499.44;4984743;28;20034;-60
2021/06/10 10:48:47;;;;;;;0.55;0.10;;;;;;;20.95;22.92;98484.88;4983547;28;20038;-61
2021/06/10 10:51:35;;;;;;;0.10;0.10;;;;;;;20.84;23.06;98489.84;4986005;28;20121;-61
2021/06/10 10:54:22;;;;;;;0.10;0.10;;;;;;;20.70;23.14;98487.06;4986760;28;20031;-59
2021/06/10 10:56:48;;;;;;;0.10;0.10;;;;;;;20.67;23.36;98479.31;4993251;28;20125;-62
2021/06/10 10:59:19;;;;;;;0.20;0.20;;;;;;;20.77;22.99;98478.28;4990147;28;20050;-62
2021/06/10 11:02:13;;;;;;;0.15;0.10;;;;;;;20.84;23.11;98487.06;4985830;28;20031;-60
2021/06/10 11:04:58;;;;;;;;;;;;;;;20.90;22.98;98483.00;4993988;28;20034;-59
2021/06/10 11:07:33;;;;;;;1.45;0.32;;;;;;;20.92;22.85;98477.97;4988605;28;19924;-53
2021/06/10 11:09:59;;;;;;;0.10;0.10;;;;;;;20.98;22.72;98481.47;4985457;28;20546;-50
2021/06/10 11:12:40;;;;;;;0.30;0.30;;;;;;;21.16;22.56;98474.09;4988737;28;20133;-59
2021/06/10 11:15:29;;;;;;;0.57;0.20;;;;;;;21.43;22.31;98464.81;4989449;28;20511;-59
2021/06/10 11:18:01;;;;;;;0.10;0.10;;;;;;;21.83;21.95;98466.97;4986671;28;20034;-52
2021/06/10 11:20:36;;;;;;;0.60;0.30;;;;;;;22.00;21.82;98461.50;4989500;28;20381;-58
2021/06/10 11:23:25;;;;;;;0.10;0.10;;;;;;;21.91;21.74;98473.75;4988963;28;20052;-59
2021/06/10 11:25:52;;;;;;;0.10;0.10;;;;;;;21.61;22.37;98478.97;4986895;28;20038;-51
2021/06/10 11:28:23;;;;;;;0.10;0.10;;;;;;;21.22;22.80;98478.44;4989097;28;20038;-52
2021/06/10 11:30:54;;;;;;;0.22;0.22;;;;;;;20.84;23.11;98487.06;4988996;28;20046;-55
2021/06/10 11:33:21;;;;;;;0.10;0.10;;;;;;;20.47;23.42;98492.47;4988355;28;20058;-59
2021/06/10 11:35:58;;;;;;;0.10;0.10;;;;;;;20.12;24.04;98466.91;4987857;28;20031;-59
2021/06/10 11:38:33;;;;;;;0.10;0.10;;;;;;;19.86;24.02;98490.78;4988385;28;20121;-60
2021/06/10 11:41:00;;;;;;;0.10;0.10;;;;;;;19.59;24.35;98478.38;4988353;28;20045;-53